sensor_id;sensor_type;location;lat;lon;timestamp;pressure;altitude;pressure_sealevel;temperature;humidity
43364;BME280;40636;52.424;-1.948;2023-01-26T00:01:09;101398.38;;;3.05;100.00
43364;BME280;40636;52.424;-1.948;2023-01-26T00:03:35;101401.75;;;3.08;100.00
43364;BME280;40636;52.424;-1.948;2023-01-26T00:06:07;101397.00;;;3.01;100.00
43364;BME280;40636;52.424;-1.948;2023-01-26T00:08:38;101394.59;;;2.98;100.00
43364;BME280;40636;52.424;-1.948;2023-01-26T00:11:07;101389.53;;;2.95;100.00
43364;BME280;40636;52.424;-1.948;2023-01-26T00:13:35;101386.13;;;2.93;100.00
43364;BME280;40636;52.424;-1.948;2023-01-26T00:16:02;101392.06;;;2.97;100.00
43364;BME280;40636;52.424;-1.948;2023-01-26T00:18:30;101391.91;;;2.98;100.00
43364;BME280;40636;52.424;-1.948;2023-01-26T00:20:58;101397.81;;;2.94;100.00
43364;BME280;40636;52.424;-1.948;2023-01-26T00:23:26;101389.16;;;2.90;100.00
43364;BME280;40636;52.424;-1.948;2023-01-26T00:25:54;101382.53;;;2.85;100.00
43364;BME280;40636;52.424;-1.948;2023-01-26T00:28:21;101392.00;;;2.80;100.00
43364;BME280;40636;52.424;-1.948;2023-01-26T00:30:48;101392.34;;;2.86;100.00
43364;BME280;40636;52.424;-1.948;2023-01-26T00:33:14;101385.28;;;2.93;100.00
43364;BME280;40636;52.424;-1.948;2023-01-26T00:35:41;101389.84;;;2.92;100.00
43364;BME280;40636;52.424;-1.948;2023-01-26T00:38:11;101392.22;;;2.87;100.00
43364;BME280;40636;52.424;-1.948;2023-01-26T00:40:38;101391.69;;;2.84;100.00
43364;BME280;40636;52.424;-1.948;2023-01-26T00:43:05;101386.94;;;2.86;100.00
43364;BME280;40636;52.424;-1.948;2023-01-26T00:45:33;101386.94;;;2.86;100.00
43364;BME280;40636;52.424;-1.948;2023-01-26T00:48:01;101387.09;;;2.76;100.00
43364;BME280;40636;52.424;-1.948;2023-01-26T00:50:28;101396.28;;;2.83;100.00
43364;BME280;40636;52.424;-1.948;2023-01-26T00:52:55;101378.31;;;2.82;100.00
43364;BME280;40636;52.424;-1.948;2023-01-26T00:55:21;101375.88;;;2.71;100.00
43364;BME280;40636;52.424;-1.948;2023-01-26T00:57:49;101375.72;;;2.72;100.00
43364;BME280;40636;52.424;-1.948;2023-01-26T01:00:16;101377.41;;;2.65;100.00
43364;BME280;40636;52.424;-1.948;2023-01-26T01:02:43;101391.13;;;2.64;100.00
43364;BME280;40636;52.424;-1.948;2023-01-26T01:05:10;101376.22;;;2.68;100.00
43364;BME280;40636;52.424;-1.948;2023-01-26T01:07:37;101384.88;;;2.71;100.00
43364;BME280;40636;52.424;-1.948;2023-01-26T01:10:04;101379.63;;;2.70;100.00
43364;BME280;40636;52.424;-1.948;2023-01-26T01:12:31;101382.84;;;2.73;100.00
43364;BME280;40636;52.424;-1.948;2023-01-26T01:14:58;101380.16;;;2.73;100.00
43364;BME280;40636;52.424;-1.948;2023-01-26T01:17:25;101378.78;;;2.69;100.00
43364;BME280;40636;52.424;-1.948;2023-01-26T01:19:51;101382.28;;;2.62;100.00
43364;BME280;40636;52.424;-1.948;2023-01-26T01:22:18;101388.25;;;2.65;100.00
43364;BME280;40636;52.424;-1.948;2023-01-26T01:24:45;101390.41;;;2.62;100.00
43364;BME280;40636;52.424;-1.948;2023-01-26T01:27:12;101398.38;;;2.55;100.00
43364;BME280;40636;52.424;-1.948;2023-01-26T01:29:38;101394.63;;;2.56;100.00
43364;BME280;40636;52.424;-1.948;2023-01-26T01:32:05;101398.84;;;2.50;100.00
43364;BME280;40636;52.424;-1.948;2023-01-26T01:34:32;101404.47;;;2.57;100.00
43364;BME280;40636;52.424;-1.948;2023-01-26T01:36:58;101409.72;;;2.59;100.00
43364;BME280;40636;52.424;-1.948;2023-01-26T01:39:25;101398.03;;;2.58;100.00
43364;BME280;40636;52.424;-1.948;2023-01-26T01:41:53;101400.41;;;2.61;100.00
43364;BME280;40636;52.424;-1.948;2023-01-26T01:44:21;101408.38;;;2.54;100.00
43364;BME280;40636;52.424;-1.948;2023-01-26T01:52:07;101405.78;;;2.53;100.00
43364;BME280;40636;52.424;-1.948;2023-01-26T01:55:04;101406.50;;;2.55;100.00
43364;BME280;40636;52.424;-1.948;2023-01-26T01:57:39;101404.41;;;2.49;100.00
43364;BME280;40636;52.424;-1.948;2023-01-26T02:00:14;101403.03;;;2.45;100.00
43364;BME280;40636;52.424;-1.948;2023-01-26T02:02:43;101411.34;;;2.43;100.00
43364;BME280;40636;52.424;-1.948;2023-01-26T02:05:23;101407.97;;;2.41;100.00
43364;BME280;40636;52.424;-1.948;2023-01-26T02:07:51;101408.28;;;2.38;100.00
43364;BME280;40636;52.424;-1.948;2023-01-26T02:10:19;101426.53;;;2.36;100.00
43364;BME280;40636;52.424;-1.948;2023-01-26T02:12:48;101421.88;;;2.46;100.00
43364;BME280;40636;52.424;-1.948;2023-01-26T02:15:16;101434.22;;;2.49;100.00
43364;BME280;40636;52.424;-1.948;2023-01-26T02:17:43;101418.13;;;2.47;100.00
43364;BME280;40636;52.424;-1.948;2023-01-26T02:20:39;101422.00;;;2.45;100.00
43364;BME280;40636;52.424;-1.948;2023-01-26T02:28:23;101426.53;;;2.36;100.00
43364;BME280;40636;52.424;-1.948;2023-01-26T02:30:52;101431.38;;;2.50;100.00
43364;BME280;40636;52.424;-1.948;2023-01-26T02:33:21;101425.25;;;2.48;100.00
43364;BME280;40636;52.424;-1.948;2023-01-26T02:35:48;101431.50;;;2.41;100.00
43364;BME280;40636;52.424;-1.948;2023-01-26T02:38:18;101435.34;;;2.38;100.00
43364;BME280;40636;52.424;-1.948;2023-01-26T02:40:57;101424.00;;;2.35;100.00
43364;BME280;40636;52.424;-1.948;2023-01-26T02:43:26;101430.91;;;2.29;100.00
43364;BME280;40636;52.424;-1.948;2023-01-26T02:45:53;101435.66;;;2.35;100.00
43364;BME280;40636;52.424;-1.948;2023-01-26T02:48:21;101426.03;;;2.33;100.00
43364;BME280;40636;52.424;-1.948;2023-01-26T02:51:06;101428.03;;;2.31;100.00
43364;BME280;40636;52.424;-1.948;2023-01-26T02:53:33;101429.22;;;2.28;100.00
43364;BME280;40636;52.424;-1.948;2023-01-26T02:56:00;101434.78;;;2.26;100.00
43364;BME280;40636;52.424;-1.948;2023-01-26T02:58:26;101435.63;;;2.27;100.00
43364;BME280;40636;52.424;-1.948;2023-01-26T03:00:53;101437.66;;;2.25;100.00
43364;BME280;40636;52.424;-1.948;2023-01-26T03:03:23;101435.59;;;2.19;100.00
43364;BME280;40636;52.424;-1.948;2023-01-26T03:05:51;101436.97;;;2.23;100.00
43364;BME280;40636;52.424;-1.948;2023-01-26T03:08:18;101436.56;;;2.18;100.00
43364;BME280;40636;52.424;-1.948;2023-01-26T03:10:45;101446.41;;;2.19;100.00
43364;BME280;40636;52.424;-1.948;2023-01-26T03:13:13;101445.88;;;2.15;100.00
43364;BME280;40636;52.424;-1.948;2023-01-26T03:15:40;101448.41;;;2.17;100.00
43364;BME280;40636;52.424;-1.948;2023-01-26T03:18:19;101448.22;;;2.10;100.00
43364;BME280;40636;52.424;-1.948;2023-01-26T03:21:09;101446.66;;;2.08;100.00
43364;BME280;40636;52.424;-1.948;2023-01-26T03:23:55;101443.41;;;2.04;100.00
43364;BME280;40636;52.424;-1.948;2023-01-26T03:26:40;101453.03;;;1.98;100.00
43364;BME280;40636;52.424;-1.948;2023-01-26T03:29:25;101435.88;;;1.90;100.00
43364;BME280;40636;52.424;-1.948;2023-01-26T03:31:52;101441.94;;;1.84;100.00
43364;BME280;40636;52.424;-1.948;2023-01-26T03:34:19;101446.31;;;1.85;100.00
43364;BME280;40636;52.424;-1.948;2023-01-26T03:36:47;101451.44;;;1.88;100.00
43364;BME280;40636;52.424;-1.948;2023-01-26T03:39:14;101449.75;;;1.87;100.00
43364;BME280;40636;52.424;-1.948;2023-01-26T03:42:00;101451.97;;;1.91;100.00
43364;BME280;40636;52.424;-1.948;2023-01-26T03:44:45;101446.50;;;1.83;100.00
43364;BME280;40636;52.424;-1.948;2023-01-26T03:47:32;101453.22;;;1.79;100.00
43364;BME280;40636;52.424;-1.948;2023-01-26T03:50:17;101455.63;;;1.82;100.00
43364;BME280;40636;52.424;-1.948;2023-01-26T03:53:14;101464.81;;;1.71;100.00
43364;BME280;40636;52.424;-1.948;2023-01-26T03:55:59;101462.75;;;1.65;100.00
43364;BME280;40636;52.424;-1.948;2023-01-26T03:58:40;101455.47;;;1.66;100.00
43364;BME280;40636;52.424;-1.948;2023-01-26T04:01:06;101451.06;;;1.65;100.00
43364;BME280;40636;52.424;-1.948;2023-01-26T04:03:36;101442.56;;;1.60;100.00
43364;BME280;40636;52.424;-1.948;2023-01-26T04:06:21;101444.94;;;1.63;100.00
43364;BME280;40636;52.424;-1.948;2023-01-26T04:09:06;101445.03;;;1.53;100.00
43364;BME280;40636;52.424;-1.948;2023-01-26T04:11:33;101450.78;;;1.50;100.00
43364;BME280;40636;52.424;-1.948;2023-01-26T04:14:00;101460.19;;;1.46;100.00
43364;BME280;40636;52.424;-1.948;2023-01-26T04:16:44;101461.91;;;1.47;100.00
43364;BME280;40636;52.424;-1.948;2023-01-26T04:19:30;101472.09;;;1.53;100.00
43364;BME280;40636;52.424;-1.948;2023-01-26T04:22:15;101469.38;;;1.53;100.00
43364;BME280;40636;52.424;-1.948;2023-01-26T04:24:42;101482.69;;;1.46;100.00
43364;BME280;40636;52.424;-1.948;2023-01-26T04:27:08;101482.69;;;1.46;100.00
43364;BME280;40636;52.424;-1.948;2023-01-26T04:29:37;101481.19;;;1.34;100.00
43364;BME280;40636;52.424;-1.948;2023-01-26T04:32:03;101471.78;;;1.38;100.00
43364;BME280;40636;52.424;-1.948;2023-01-26T04:34:30;101479.88;;;1.38;100.00
43364;BME280;40636;52.424;-1.948;2023-01-26T04:36:57;101488.84;;;1.39;100.00
43364;BME280;40636;52.424;-1.948;2023-01-26T04:39:24;101480.91;;;1.37;100.00
43364;BME280;40636;52.424;-1.948;2023-01-26T04:41:51;101480.56;;;1.40;100.00
43364;BME280;40636;52.424;-1.948;2023-01-26T04:44:18;101483.91;;;1.34;100.00
43364;BME280;40636;52.424;-1.948;2023-01-26T04:46:45;101491.00;;;1.35;100.00
43364;BME280;40636;52.424;-1.948;2023-01-26T04:49:14;101488.75;;;1.31;100.00
43364;BME280;40636;52.424;-1.948;2023-01-26T04:51:40;101487.63;;;1.33;100.00
43364;BME280;40636;52.424;-1.948;2023-01-26T04:54:07;101486.50;;;1.26;100.00
43364;BME280;40636;52.424;-1.948;2023-01-26T04:56:34;101481.94;;;1.26;100.00
43364;BME280;40636;52.424;-1.948;2023-01-26T04:59:03;101490.69;;;1.20;100.00
43364;BME280;40636;52.424;-1.948;2023-01-26T05:01:31;101488.19;;;1.27;100.00
43364;BME280;40636;52.424;-1.948;2023-01-26T05:04:02;101475.00;;;1.24;100.00
43364;BME280;40636;52.424;-1.948;2023-01-26T05:06:29;101475.13;;;1.22;100.00
43364;BME280;40636;52.424;-1.948;2023-01-26T05:08:57;101475.31;;;1.21;100.00
43364;BME280;40636;52.424;-1.948;2023-01-26T05:11:24;101480.31;;;1.16;100.00
43364;BME280;40636;52.424;-1.948;2023-01-26T05:13:51;101475.47;;;1.19;100.00
43364;BME280;40636;52.424;-1.948;2023-01-26T05:16:18;101472.97;;;1.08;100.00
43364;BME280;40636;52.424;-1.948;2023-01-26T05:18:45;101476.66;;;1.07;100.00
43364;BME280;40636;52.424;-1.948;2023-01-26T05:21:12;101475.66;;;1.08;100.00
43364;BME280;40636;52.424;-1.948;2023-01-26T05:23:38;101483.25;;;1.05;100.00
43364;BME280;40636;52.424;-1.948;2023-01-26T05:26:06;101481.22;;;1.07;100.00
43364;BME280;40636;52.424;-1.948;2023-01-26T05:28:33;101474.91;;;1.16;100.00
43364;BME280;40636;52.424;-1.948;2023-01-26T05:31:00;101470.66;;;1.13;100.00
43364;BME280;40636;52.424;-1.948;2023-01-26T05:33:27;101474.53;;;1.11;100.00
43364;BME280;40636;52.424;-1.948;2023-01-26T05:35:54;101483.03;;;1.16;100.00
43364;BME280;40636;52.424;-1.948;2023-01-26T05:38:21;101487.13;;;1.20;100.00
43364;BME280;40636;52.424;-1.948;2023-01-26T05:40:48;101493.16;;;1.14;100.00
43364;BME280;40636;52.424;-1.948;2023-01-26T05:43:15;101493.66;;;1.17;100.00
43364;BME280;40636;52.424;-1.948;2023-01-26T05:45:42;101493.94;;;1.24;100.00
43364;BME280;40636;52.424;-1.948;2023-01-26T05:48:09;101491.63;;;1.29;100.00
43364;BME280;40636;52.424;-1.948;2023-01-26T05:50:36;101491.47;;;1.31;100.00
43364;BME280;40636;52.424;-1.948;2023-01-26T05:53:02;101499.34;;;1.24;100.00
43364;BME280;40636;52.424;-1.948;2023-01-26T05:55:29;101499.44;;;1.32;100.00
43364;BME280;40636;52.424;-1.948;2023-01-26T05:57:56;101503.13;;;1.31;100.00
43364;BME280;40636;52.424;-1.948;2023-01-26T06:00:23;101502.16;;;1.32;100.00
43364;BME280;40636;52.424;-1.948;2023-01-26T06:02:49;101514.44;;;1.44;100.00
43364;BME280;40636;52.424;-1.948;2023-01-26T06:05:16;101523.66;;;1.51;100.00
43364;BME280;40636;52.424;-1.948;2023-01-26T06:07:43;101523.34;;;1.55;100.00
43364;BME280;40636;52.424;-1.948;2023-01-26T06:10:10;101519.84;;;1.62;100.00
43364;BME280;40636;52.424;-1.948;2023-01-26T06:12:38;101511.28;;;1.67;100.00
43364;BME280;40636;52.424;-1.948;2023-01-26T06:15:05;101508.97;;;1.72;100.00
43364;BME280;40636;52.424;-1.948;2023-01-26T06:17:33;101504.09;;;1.75;100.00
43364;BME280;40636;52.424;-1.948;2023-01-26T06:19:59;101509.75;;;1.82;100.00
43364;BME280;40636;52.424;-1.948;2023-01-26T06:22:26;101502.31;;;1.84;100.00
43364;BME280;40636;52.424;-1.948;2023-01-26T06:24:53;101512.84;;;1.87;100.00
43364;BME280;40636;52.424;-1.948;2023-01-26T06:27:20;101519.31;;;1.94;100.00
43364;BME280;40636;52.424;-1.948;2023-01-26T06:29:46;101524.44;;;1.97;100.00
43364;BME280;40636;52.424;-1.948;2023-01-26T06:32:14;101520.72;;;1.98;100.00
43364;BME280;40636;52.424;-1.948;2023-01-26T06:34:41;101521.81;;;2.06;100.00
43364;BME280;40636;52.424;-1.948;2023-01-26T06:37:08;101537.41;;;2.12;100.00
43364;BME280;40636;52.424;-1.948;2023-01-26T06:39:35;101537.31;;;2.21;100.00
43364;BME280;40636;52.424;-1.948;2023-01-26T06:42:03;101534.84;;;2.28;100.00
43364;BME280;40636;52.424;-1.948;2023-01-26T06:44:30;101529.81;;;2.33;100.00
43364;BME280;40636;52.424;-1.948;2023-01-26T06:46:57;101533.91;;;2.37;100.00
43364;BME280;40636;52.424;-1.948;2023-01-26T06:49:23;101534.75;;;2.38;100.00
43364;BME280;40636;52.424;-1.948;2023-01-26T06:52:18;101532.50;;;2.33;100.00
43364;BME280;40636;52.424;-1.948;2023-01-26T06:54:48;101535.06;;;2.35;100.00
43364;BME280;40636;52.424;-1.948;2023-01-26T06:57:15;101529.47;;;2.36;100.00
43364;BME280;40636;52.424;-1.948;2023-01-26T06:59:42;101537.75;;;2.35;100.00
43364;BME280;40636;52.424;-1.948;2023-01-26T07:02:19;101536.91;;;2.34;100.00
43364;BME280;40636;52.424;-1.948;2023-01-26T07:04:47;101535.91;;;2.35;100.00
43364;BME280;40636;52.424;-1.948;2023-01-26T07:07:14;101541.00;;;2.38;100.00
43364;BME280;40636;52.424;-1.948;2023-01-26T07:09:41;101535.28;;;2.41;100.00
43364;BME280;40636;52.424;-1.948;2023-01-26T07:12:08;101544.41;;;2.40;100.00
43364;BME280;40636;52.424;-1.948;2023-01-26T07:14:35;101540.63;;;2.33;100.00
43364;BME280;40636;52.424;-1.948;2023-01-26T07:17:02;101549.81;;;2.40;100.00
43364;BME280;40636;52.424;-1.948;2023-01-26T07:19:29;101549.44;;;2.35;100.00
43364;BME280;40636;52.424;-1.948;2023-01-26T07:21:59;101543.88;;;2.37;100.00
43364;BME280;40636;52.424;-1.948;2023-01-26T07:24:26;101545.41;;;2.39;100.00
43364;BME280;40636;52.424;-1.948;2023-01-26T07:26:53;101544.25;;;2.42;100.00
43364;BME280;40636;52.424;-1.948;2023-01-26T07:29:21;101549.88;;;2.48;100.00
43364;BME280;40636;52.424;-1.948;2023-01-26T07:31:47;101541.84;;;2.39;100.00
43364;BME280;40636;52.424;-1.948;2023-01-26T07:34:14;101547.44;;;2.37;100.00
43364;BME280;40636;52.424;-1.948;2023-01-26T07:36:41;101556.34;;;2.29;100.00
43364;BME280;40636;52.424;-1.948;2023-01-26T07:39:08;101558.88;;;2.31;100.00
43364;BME280;40636;52.424;-1.948;2023-01-26T07:41:36;101563.84;;;2.18;100.00
43364;BME280;40636;52.424;-1.948;2023-01-26T07:44:02;101557.75;;;2.16;100.00
43364;BME280;40636;52.424;-1.948;2023-01-26T07:46:33;101546.75;;;2.17;100.00
43364;BME280;40636;52.424;-1.948;2023-01-26T07:49:00;101549.00;;;2.22;100.00
43364;BME280;40636;52.424;-1.948;2023-01-26T07:51:26;101551.56;;;2.23;100.00
43364;BME280;40636;52.424;-1.948;2023-01-26T07:53:53;101550.72;;;2.23;100.00
43364;BME280;40636;52.424;-1.948;2023-01-26T07:56:20;101556.56;;;2.36;100.00
43364;BME280;40636;52.424;-1.948;2023-01-26T07:58:53;101564.16;;;2.33;100.00
43364;BME280;40636;52.424;-1.948;2023-01-26T08:01:20;101567.72;;;2.33;100.00
43364;BME280;40636;52.424;-1.948;2023-01-26T08:03:49;101572.50;;;2.39;100.00
43364;BME280;40636;52.424;-1.948;2023-01-26T08:06:16;101572.91;;;2.26;100.00
43364;BME280;40636;52.424;-1.948;2023-01-26T08:08:48;101580.56;;;2.31;100.00
43364;BME280;40636;52.424;-1.948;2023-01-26T08:11:19;101574.53;;;2.37;100.00
43364;BME280;40636;52.424;-1.948;2023-01-26T08:13:48;101583.88;;;2.43;100.00
43364;BME280;40636;52.424;-1.948;2023-01-26T08:16:16;101576.97;;;2.48;100.00
43364;BME280;40636;52.424;-1.948;2023-01-26T08:18:44;101566.84;;;2.50;100.00
43364;BME280;40636;52.424;-1.948;2023-01-26T08:21:13;101576.97;;;2.48;100.00
43364;BME280;40636;52.424;-1.948;2023-01-26T08:23:40;101583.56;;;2.46;100.00
43364;BME280;40636;52.424;-1.948;2023-01-26T08:26:09;101593.94;;;2.50;100.00
43364;BME280;40636;52.424;-1.948;2023-01-26T08:28:36;101603.84;;;2.60;100.00
43364;BME280;40636;52.424;-1.948;2023-01-26T08:31:11;101615.34;;;2.62;100.00
43364;BME280;40636;52.424;-1.948;2023-01-26T08:33:40;101606.91;;;2.65;100.00
43364;BME280;40636;52.424;-1.948;2023-01-26T08:36:10;101607.94;;;2.64;100.00
43364;BME280;40636;52.424;-1.948;2023-01-26T08:38:37;101610.78;;;2.62;100.00
43364;BME280;40636;52.424;-1.948;2023-01-26T08:41:05;101616.06;;;2.64;100.00
43364;BME280;40636;52.424;-1.948;2023-01-26T08:43:33;101618.78;;;2.64;100.00
43364;BME280;40636;52.424;-1.948;2023-01-26T08:46:01;101619.84;;;2.71;100.00
43364;BME280;40636;52.424;-1.948;2023-01-26T08:48:29;101601.22;;;2.76;100.00
43364;BME280;40636;52.424;-1.948;2023-01-26T08:50:58;101598.88;;;2.81;100.00
43364;BME280;40636;52.424;-1.948;2023-01-26T08:53:29;101587.19;;;2.80;100.00
43364;BME280;40636;52.424;-1.948;2023-01-26T08:55:56;101608.78;;;2.90;100.00
43364;BME280;40636;52.424;-1.948;2023-01-26T08:58:23;101608.78;;;2.90;100.00
43364;BME280;40636;52.424;-1.948;2023-01-26T09:00:49;101616.88;;;2.82;100.00
43364;BME280;40636;52.424;-1.948;2023-01-26T09:03:16;101611.34;;;2.92;100.00
43364;BME280;40636;52.424;-1.948;2023-01-26T09:05:43;101613.69;;;2.87;100.00
43364;BME280;40636;52.424;-1.948;2023-01-26T09:08:10;101614.91;;;2.92;100.00
43364;BME280;40636;52.424;-1.948;2023-01-26T09:10:40;101615.81;;;3.01;100.00
43364;BME280;40636;52.424;-1.948;2023-01-26T09:13:09;101608.72;;;3.08;100.00
43364;BME280;40636;52.424;-1.948;2023-01-26T09:15:37;101605.09;;;2.99;100.00
43364;BME280;40636;52.424;-1.948;2023-01-26T09:18:04;101608.34;;;3.03;100.00
43364;BME280;40636;52.424;-1.948;2023-01-26T09:20:31;101609.19;;;3.03;100.00
43364;BME280;40636;52.424;-1.948;2023-01-26T09:22:58;101617.06;;;3.15;100.00
43364;BME280;40636;52.424;-1.948;2023-01-26T09:25:25;101615.88;;;3.09;100.00
43364;BME280;40636;52.424;-1.948;2023-01-26T09:27:52;101617.50;;;3.02;100.00
43364;BME280;40636;52.424;-1.948;2023-01-26T09:30:19;101613.22;;;2.99;100.00
43364;BME280;40636;52.424;-1.948;2023-01-26T09:32:45;101605.16;;;3.08;100.00
43364;BME280;40636;52.424;-1.948;2023-01-26T09:35:12;101623.47;;;3.05;100.00
43364;BME280;40636;52.424;-1.948;2023-01-26T09:37:43;101614.84;;;3.10;100.00
43364;BME280;40636;52.424;-1.948;2023-01-26T09:40:17;101631.78;;;3.12;100.00
43364;BME280;40636;52.424;-1.948;2023-01-26T09:43:03;101636.53;;;3.10;100.00
43364;BME280;40636;52.424;-1.948;2023-01-26T09:45:43;101638.06;;;3.13;100.00
43364;BME280;40636;52.424;-1.948;2023-01-26T09:51:00;101632.38;;;3.24;100.00
43364;BME280;40636;52.424;-1.948;2023-01-26T09:53:49;101635.66;;;3.36;100.00
43364;BME280;40636;52.424;-1.948;2023-01-26T09:56:19;101630.97;;;3.46;100.00
43364;BME280;40636;52.424;-1.948;2023-01-26T09:59:12;101628.44;;;3.52;100.00
43364;BME280;40636;52.424;-1.948;2023-01-26T10:01:52;101640.19;;;3.61;100.00
43364;BME280;40636;52.424;-1.948;2023-01-26T10:04:34;101644.44;;;3.64;100.00
43364;BME280;40636;52.424;-1.948;2023-01-26T10:07:07;101638.03;;;3.73;100.00
43364;BME280;40636;52.424;-1.948;2023-01-26T10:09:36;101636.16;;;3.73;100.00
43364;BME280;40636;52.424;-1.948;2023-01-26T10:12:17;101639.75;;;3.82;100.00
43364;BME280;40636;52.424;-1.948;2023-01-26T10:14:51;101646.91;;;3.91;100.00
43364;BME280;40636;52.424;-1.948;2023-01-26T10:20:03;101648.47;;;4.02;100.00
43364;BME280;40636;52.424;-1.948;2023-01-26T10:22:54;101647.63;;;4.01;100.00
43364;BME280;40636;52.424;-1.948;2023-01-26T10:25:37;101651.88;;;4.12;100.00
43364;BME280;40636;52.424;-1.948;2023-01-26T10:30:47;101652.56;;;4.22;100.00
43364;BME280;40636;52.424;-1.948;2023-01-26T10:33:19;101676.19;;;4.30;100.00
43364;BME280;40636;52.424;-1.948;2023-01-26T10:35:46;101679.25;;;4.35;100.00
43364;BME280;40636;52.424;-1.948;2023-01-26T10:41:05;101672.84;;;4.36;100.00
43364;BME280;40636;52.424;-1.948;2023-01-26T10:43:39;101661.78;;;4.38;100.00
43364;BME280;40636;52.424;-1.948;2023-01-26T10:46:34;101669.25;;;4.44;100.00
43364;BME280;40636;52.424;-1.948;2023-01-26T10:49:22;101665.69;;;4.43;100.00
43364;BME280;40636;52.424;-1.948;2023-01-26T10:52:15;101656.84;;;4.49;100.00
43364;BME280;40636;52.424;-1.948;2023-01-26T10:55:09;101661.94;;;4.44;100.00
43364;BME280;40636;52.424;-1.948;2023-01-26T10:57:38;101657.38;;;4.37;100.00
43364;BME280;40636;52.424;-1.948;2023-01-26T11:00:22;101654.31;;;4.48;100.00
43364;BME280;40636;52.424;-1.948;2023-01-26T11:02:52;101653.47;;;4.64;100.00
43364;BME280;40636;52.424;-1.948;2023-01-26T11:05:24;101652.63;;;4.79;100.00
43364;BME280;40636;52.424;-1.948;2023-01-26T11:07:53;101652.09;;;4.84;100.00
43364;BME280;40636;52.424;-1.948;2023-01-26T11:10:30;101655.00;;;4.91;100.00
43364;BME280;40636;52.424;-1.948;2023-01-26T11:13:19;101661.63;;;4.96;100.00
43364;BME280;40636;52.424;-1.948;2023-01-26T11:15:59;101650.91;;;4.95;100.00
43364;BME280;40636;52.424;-1.948;2023-01-26T11:21:10;101649.38;;;5.00;100.00
43364;BME280;40636;52.424;-1.948;2023-01-26T11:32:16;101660.59;;;5.14;100.00
43364;BME280;40636;52.424;-1.948;2023-01-26T11:34:49;101662.78;;;5.18;100.00
43364;BME280;40636;52.424;-1.948;2023-01-26T11:37:38;101662.94;;;5.17;100.00
43364;BME280;40636;52.424;-1.948;2023-01-26T11:49:02;101650.84;;;5.27;100.00
43364;BME280;40636;52.424;-1.948;2023-01-26T11:55:09;101638.03;;;5.44;100.00
43364;BME280;40636;52.424;-1.948;2023-01-26T12:03:02;101634.47;;;5.44;100.00
43364;BME280;40636;52.424;-1.948;2023-01-26T12:05:39;101631.56;;;5.45;100.00
43364;BME280;40636;52.424;-1.948;2023-01-26T12:08:30;101631.38;;;5.55;100.00
43364;BME280;40636;52.424;-1.948;2023-01-26T12:14:14;101625.00;;;5.63;100.00
43364;BME280;40636;52.424;-1.948;2023-01-26T12:22:28;101597.75;;;5.71;100.00
43364;BME280;40636;52.424;-1.948;2023-01-26T12:27:57;101602.16;;;5.72;100.00
43364;BME280;40636;52.424;-1.948;2023-01-26T12:34:06;101601.75;;;5.91;100.00
43364;BME280;40636;52.424;-1.948;2023-01-26T12:39:33;101600.22;;;5.89;100.00
43364;BME280;40636;52.424;-1.948;2023-01-26T12:44:56;101593.94;;;5.80;100.00
43364;BME280;40636;52.424;-1.948;2023-01-26T12:47:40;101592.88;;;5.89;100.00
43364;BME280;40636;52.424;-1.948;2023-01-26T12:50:23;101581.81;;;5.91;100.00
43364;BME280;40636;52.424;-1.948;2023-01-26T12:58:43;101573.75;;;6.05;100.00
43364;BME280;40636;52.424;-1.948;2023-01-26T13:01:16;101573.91;;;6.04;100.00
43364;BME280;40636;52.424;-1.948;2023-01-26T13:03:51;101580.28;;;6.19;100.00
43364;BME280;40636;52.424;-1.948;2023-01-26T13:06:24;101569.50;;;6.26;100.00
43364;BME280;40636;52.424;-1.948;2023-01-26T13:09:00;101585.50;;;6.29;100.00
43364;BME280;40636;52.424;-1.948;2023-01-26T13:11:55;101567.81;;;6.25;100.00
43364;BME280;40636;52.424;-1.948;2023-01-26T13:27:28;101571.59;;;6.76;100.00
43364;BME280;40636;52.424;-1.948;2023-01-26T13:29:56;101564.09;;;6.78;100.00
43364;BME280;40636;52.424;-1.948;2023-01-26T13:34:54;101569.63;;;6.85;100.00
43364;BME280;40636;52.424;-1.948;2023-01-26T13:37:42;101568.44;;;6.88;100.00
43364;BME280;40636;52.424;-1.948;2023-01-26T13:43:18;101560.03;;;6.89;100.00
43364;BME280;40636;52.424;-1.948;2023-01-26T13:45:59;101562.41;;;6.92;100.00
43364;BME280;40636;52.424;-1.948;2023-01-26T13:51:10;101575.63;;;6.66;100.00
43364;BME280;40636;52.424;-1.948;2023-01-26T13:56:31;101572.63;;;6.60;100.00
43364;BME280;40636;52.424;-1.948;2023-01-26T13:59:05;101571.13;;;6.35;100.00
43364;BME280;40636;52.424;-1.948;2023-01-26T14:01:32;101570.88;;;6.45;100.00
43364;BME280;40636;52.424;-1.948;2023-01-26T14:04:06;101573.22;;;6.48;100.00
43364;BME280;40636;52.424;-1.948;2023-01-26T14:06:36;101572.38;;;6.47;100.00
43364;BME280;40636;52.424;-1.948;2023-01-26T14:09:04;101572.59;;;6.46;100.00
43364;BME280;40636;52.424;-1.948;2023-01-26T14:11:32;101580.88;;;6.52;100.00
43364;BME280;40636;52.424;-1.948;2023-01-26T14:14:00;101576.41;;;6.37;100.00
43364;BME280;40636;52.424;-1.948;2023-01-26T14:16:30;101580.81;;;6.38;100.00
43364;BME280;40636;52.424;-1.948;2023-01-26T14:21:31;101586.66;;;6.49;100.00
43364;BME280;40636;52.424;-1.948;2023-01-26T14:23:58;101575.13;;;6.47;100.00
43364;BME280;40636;52.424;-1.948;2023-01-26T14:26:31;101589.09;;;6.44;100.00
43364;BME280;40636;52.424;-1.948;2023-01-26T14:28:59;101588.81;;;6.39;100.00
43364;BME280;40636;52.424;-1.948;2023-01-26T14:31:27;101598.69;;;6.40;100.00
43364;BME280;40636;52.424;-1.948;2023-01-26T14:33:56;101592.88;;;6.43;100.00
43364;BME280;40636;52.424;-1.948;2023-01-26T14:36:27;101593.06;;;6.42;100.00
43364;BME280;40636;52.424;-1.948;2023-01-26T14:38:55;101596.84;;;6.41;100.00
43364;BME280;40636;52.424;-1.948;2023-01-26T14:41:25;101606.56;;;6.35;100.00
43364;BME280;40636;52.424;-1.948;2023-01-26T14:43:55;101616.63;;;6.34;100.00